sensor_id;sensor_type;location;lat;lon;timestamp;pressure;altitude;pressure_sealevel;temperature;humidity
12213;BME280;6169;44.158;22.788;2023-05-23T00:04:33;100836.97;;;20.05;56.56
12213;BME280;6169;44.158;22.788;2023-05-23T00:09:36;100836.88;;;20.10;56.76
12213;BME280;6169;44.158;22.788;2023-05-23T00:14:38;100839.44;;;20.25;56.52
12213;BME280;6169;44.158;22.788;2023-05-23T00:19:42;100847.72;;;20.25;56.03
12213;BME280;6169;44.158;22.788;2023-05-23T00:24:45;100837.41;;;19.93;56.81
12213;BME280;6169;44.158;22.788;2023-05-23T00:29:47;100843.94;;;19.97;56.94
12213;BME280;6169;44.158;22.788;2023-05-23T00:34:51;100838.03;;;20.09;56.55
12213;BME280;6169;44.158;22.788;2023-05-23T00:39:55;100845.19;;;19.67;57.42
12213;BME280;6169;44.158;22.788;2023-05-23T00:44:57;100840.53;;;19.14;59.58
12213;BME280;6169;44.158;22.788;2023-05-23T00:50:01;100839.53;;;19.29;59.39
12213;BME280;6169;44.158;22.788;2023-05-23T00:55:05;100843.81;;;19.41;57.47
12213;BME280;6169;44.158;22.788;2023-05-23T01:00:09;100829.25;;;19.64;56.50
12213;BME280;6169;44.158;22.788;2023-05-23T01:05:15;100850.44;;;19.45;58.11
12213;BME280;6169;44.158;22.788;2023-05-23T01:10:19;100858.38;;;19.22;58.69
12213;BME280;6169;44.158;22.788;2023-05-23T01:15:27;100870.09;;;18.69;61.91
12213;BME280;6169;44.158;22.788;2023-05-23T01:20:34;100859.13;;;18.99;60.83
12213;BME280;6169;44.158;22.788;2023-05-23T01:25:48;100864.88;;;19.31;59.06
12213;BME280;6169;44.158;22.788;2023-05-23T01:31:02;100853.78;;;18.83;60.02
12213;BME280;6169;44.158;22.788;2023-05-23T01:36:05;100854.97;;;18.72;59.66
12213;BME280;6169;44.158;22.788;2023-05-23T01:41:09;100844.50;;;18.74;59.93
12213;BME280;6169;44.158;22.788;2023-05-23T01:46:13;100849.13;;;18.79;60.22
12213;BME280;6169;44.158;22.788;2023-05-23T01:51:17;100840.56;;;18.46;61.33
12213;BME280;6169;44.158;22.788;2023-05-23T01:56:19;100843.31;;;18.46;60.76
12213;BME280;6169;44.158;22.788;2023-05-23T02:01:23;100843.19;;;18.22;61.21
12213;BME280;6169;44.158;22.788;2023-05-23T02:06:26;100859.13;;;18.25;60.93
12213;BME280;6169;44.158;22.788;2023-05-23T02:11:28;100853.09;;;18.23;60.90
12213;BME280;6169;44.158;22.788;2023-05-23T02:16:31;100774.09;;;17.79;60.26
12213;BME280;6169;44.158;22.788;2023-05-23T02:21:36;100854.63;;;17.90;61.33
12213;BME280;6169;44.158;22.788;2023-05-23T02:26:39;100852.69;;;17.90;61.39
12213;BME280;6169;44.158;22.788;2023-05-23T02:31:43;100864.28;;;17.77;61.58
12213;BME280;6169;44.158;22.788;2023-05-23T02:36:45;100856.81;;;17.93;61.62
12213;BME280;6169;44.158;22.788;2023-05-23T02:41:47;100865.66;;;17.85;61.72
12213;BME280;6169;44.158;22.788;2023-05-23T02:46:51;100863.44;;;17.87;61.72
12213;BME280;6169;44.158;22.788;2023-05-23T02:51:53;100856.53;;;17.99;60.80
12213;BME280;6169;44.158;22.788;2023-05-23T02:56:55;100850.69;;;18.11;60.19
12213;BME280;6169;44.158;22.788;2023-05-23T03:01:59;100856.00;;;17.87;61.51
12213;BME280;6169;44.158;22.788;2023-05-23T03:07:01;100863.25;;;17.68;62.39
12213;BME280;6169;44.158;22.788;2023-05-23T03:12:04;100861.16;;;17.29;64.47
12213;BME280;6169;44.158;22.788;2023-05-23T03:17:11;100858.06;;;17.56;63.19
12213;BME280;6169;44.158;22.788;2023-05-23T03:22:14;100864.66;;;17.55;63.80
12213;BME280;6169;44.158;22.788;2023-05-23T03:27:16;100862.88;;;17.90;61.42
12213;BME280;6169;44.158;22.788;2023-05-23T03:32:19;100867.28;;;17.86;60.73
12213;BME280;6169;44.158;22.788;2023-05-23T03:37:22;100853.47;;;18.06;60.25
12213;BME280;6169;44.158;22.788;2023-05-23T03:42:24;100874.41;;;18.46;61.00
12213;BME280;6169;44.158;22.788;2023-05-23T03:47:27;100876.97;;;18.77;58.08
12213;BME280;6169;44.158;22.788;2023-05-23T03:52:30;100877.75;;;18.83;57.46
12213;BME280;6169;44.158;22.788;2023-05-23T03:57:32;100881.56;;;18.42;57.93
12213;BME280;6169;44.158;22.788;2023-05-23T04:02:36;100868.25;;;18.20;59.58
12213;BME280;6169;44.158;22.788;2023-05-23T04:07:39;100868.53;;;18.19;60.00
12213;BME280;6169;44.158;22.788;2023-05-23T04:12:42;100876.59;;;18.00;62.25
12213;BME280;6169;44.158;22.788;2023-05-23T04:17:45;100873.28;;;18.47;60.91
12213;BME280;6169;44.158;22.788;2023-05-23T04:22:48;100872.78;;;17.96;63.17
12213;BME280;6169;44.158;22.788;2023-05-23T04:27:50;100869.38;;;18.54;62.08
12213;BME280;6169;44.158;22.788;2023-05-23T04:32:55;100881.38;;;19.36;58.60
12213;BME280;6169;44.158;22.788;2023-05-23T04:37:59;100887.16;;;19.35;58.52
12213;BME280;6169;44.158;22.788;2023-05-23T04:43:03;100877.28;;;19.05;59.47
12213;BME280;6169;44.158;22.788;2023-05-23T04:48:07;100876.88;;;19.46;58.72
12213;BME280;6169;44.158;22.788;2023-05-23T04:53:09;100886.19;;;19.74;58.19
12213;BME280;6169;44.158;22.788;2023-05-23T04:58:11;100897.47;;;19.53;57.88
12213;BME280;6169;44.158;22.788;2023-05-23T05:03:15;100903.88;;;20.40;55.55
12213;BME280;6169;44.158;22.788;2023-05-23T05:08:17;100897.19;;;19.79;58.13
12213;BME280;6169;44.158;22.788;2023-05-23T05:13:20;100901.50;;;19.85;58.51
12213;BME280;6169;44.158;22.788;2023-05-23T05:18:25;100898.59;;;19.76;58.09
12213;BME280;6169;44.158;22.788;2023-05-23T05:23:27;100900.03;;;19.93;57.62
12213;BME280;6169;44.158;22.788;2023-05-23T05:28:31;100906.66;;;20.54;54.80
12213;BME280;6169;44.158;22.788;2023-05-23T05:33:34;100894.94;;;20.62;54.35
12213;BME280;6169;44.158;22.788;2023-05-23T05:38:37;100900.09;;;20.31;56.74
12213;BME280;6169;44.158;22.788;2023-05-23T05:43:39;100909.31;;;20.83;53.73
12213;BME280;6169;44.158;22.788;2023-05-23T05:48:43;100912.13;;;20.97;54.14
12213;BME280;6169;44.158;22.788;2023-05-23T05:53:45;100905.06;;;21.04;53.68
12213;BME280;6169;44.158;22.788;2023-05-23T05:58:49;100906.97;;;21.36;53.52
12213;BME280;6169;44.158;22.788;2023-05-23T06:03:52;100905.56;;;21.06;55.17
12213;BME280;6169;44.158;22.788;2023-05-23T06:08:54;100901.22;;;20.86;54.27
12213;BME280;6169;44.158;22.788;2023-05-23T06:13:56;100908.47;;;21.62;53.32
12213;BME280;6169;44.158;22.788;2023-05-23T06:19:00;100902.09;;;21.89;52.28
12213;BME280;6169;44.158;22.788;2023-05-23T06:24:03;100895.72;;;22.88;48.60
12213;BME280;6169;44.158;22.788;2023-05-23T06:29:05;100894.09;;;22.29;49.54
12213;BME280;6169;44.158;22.788;2023-05-23T06:34:08;100894.81;;;22.57;48.16
12213;BME280;6169;44.158;22.788;2023-05-23T06:39:10;100888.81;;;22.63;47.69
12213;BME280;6169;44.158;22.788;2023-05-23T06:44:13;100899.03;;;23.53;45.04
12213;BME280;6169;44.158;22.788;2023-05-23T06:49:17;100894.84;;;23.64;43.60
12213;BME280;6169;44.158;22.788;2023-05-23T06:54:19;100893.88;;;23.06;45.29
12213;BME280;6169;44.158;22.788;2023-05-23T06:59:21;100895.06;;;23.14;44.29
12213;BME280;6169;44.158;22.788;2023-05-23T07:04:25;100887.94;;;22.77;45.62
12213;BME280;6169;44.158;22.788;2023-05-23T07:09:27;100881.91;;;22.97;45.91
12213;BME280;6169;44.158;22.788;2023-05-23T07:14:29;100886.28;;;23.21;44.41
12213;BME280;6169;44.158;22.788;2023-05-23T07:19:32;100881.19;;;23.14;44.90
12213;BME280;6169;44.158;22.788;2023-05-23T07:24:35;100872.44;;;23.60;45.01
12213;BME280;6169;44.158;22.788;2023-05-23T07:29:38;100872.53;;;23.87;45.50
12213;BME280;6169;44.158;22.788;2023-05-23T07:34:42;100861.06;;;23.79;42.82
12213;BME280;6169;44.158;22.788;2023-05-23T07:39:44;100873.56;;;24.17;42.36
12213;BME280;6169;44.158;22.788;2023-05-23T07:44:46;100870.31;;;24.49;42.30
12213;BME280;6169;44.158;22.788;2023-05-23T07:49:50;100865.59;;;24.85;41.97
12213;BME280;6169;44.158;22.788;2023-05-23T07:54:52;100861.41;;;25.08;41.19
12213;BME280;6169;44.158;22.788;2023-05-23T07:59:55;100858.06;;;24.85;42.13
12213;BME280;6169;44.158;22.788;2023-05-23T08:04:58;100857.41;;;24.45;42.67
12213;BME280;6169;44.158;22.788;2023-05-23T08:10:01;100853.22;;;25.12;42.09
12213;BME280;6169;44.158;22.788;2023-05-23T08:15:04;100861.34;;;24.53;42.50
12213;BME280;6169;44.158;22.788;2023-05-23T08:20:09;100858.56;;;24.70;42.73
12213;BME280;6169;44.158;22.788;2023-05-23T08:25:11;100853.13;;;23.95;44.14
12213;BME280;6169;44.158;22.788;2023-05-23T08:30:14;100852.03;;;24.66;42.46
12213;BME280;6169;44.158;22.788;2023-05-23T08:35:18;100842.94;;;25.51;41.23
12213;BME280;6169;44.158;22.788;2023-05-23T08:40:21;100840.13;;;25.30;40.07
12213;BME280;6169;44.158;22.788;2023-05-23T08:45:24;100832.88;;;26.39;38.34
12213;BME280;6169;44.158;22.788;2023-05-23T08:50:29;100827.75;;;25.78;37.02
12213;BME280;6169;44.158;22.788;2023-05-23T08:55:31;100834.78;;;26.26;36.33
12213;BME280;6169;44.158;22.788;2023-05-23T09:00:34;100831.72;;;25.68;36.49
12213;BME280;6169;44.158;22.788;2023-05-23T09:05:37;100729.16;;;25.49;36.03
12213;BME280;6169;44.158;22.788;2023-05-23T09:10:40;100824.69;;;25.41;37.33
12213;BME280;6169;44.158;22.788;2023-05-23T09:15:55;100820.19;;;25.49;37.69
12213;BME280;6169;44.158;22.788;2023-05-23T09:21:01;100820.41;;;25.94;37.03
12213;BME280;6169;44.158;22.788;2023-05-23T09:26:04;100819.09;;;25.71;35.99
12213;BME280;6169;44.158;22.788;2023-05-23T09:31:07;100810.38;;;25.81;35.71
12213;BME280;6169;44.158;22.788;2023-05-23T09:36:11;100802.41;;;26.55;34.71
12213;BME280;6169;44.158;22.788;2023-05-23T09:41:13;100814.25;;;26.10;35.45
12213;BME280;6169;44.158;22.788;2023-05-23T09:46:16;100793.84;;;26.39;35.89
12213;BME280;6169;44.158;22.788;2023-05-23T09:51:21;100787.47;;;27.94;34.32
12213;BME280;6169;44.158;22.788;2023-05-23T09:56:25;100773.31;;;26.89;34.26
12213;BME280;6169;44.158;22.788;2023-05-23T10:01:29;100772.81;;;26.75;34.69
12213;BME280;6169;44.158;22.788;2023-05-23T10:06:43;100766.25;;;27.41;34.69
12213;BME280;6169;44.158;22.788;2023-05-23T10:17:35;100767.00;;;27.90;33.06
12213;BME280;6169;44.158;22.788;2023-05-23T10:22:42;100754.41;;;27.19;33.23
12213;BME280;6169;44.158;22.788;2023-05-23T10:27:47;100749.25;;;28.11;34.34
12213;BME280;6169;44.158;22.788;2023-05-23T10:32:50;100744.47;;;28.99;31.91
12213;BME280;6169;44.158;22.788;2023-05-23T10:38:01;100730.44;;;27.95;32.60
12213;BME280;6169;44.158;22.788;2023-05-23T10:43:09;100731.09;;;28.77;31.60
12213;BME280;6169;44.158;22.788;2023-05-23T10:48:20;100728.28;;;28.61;31.93
12213;BME280;6169;44.158;22.788;2023-05-23T10:53:24;100720.97;;;29.20;32.28
12213;BME280;6169;44.158;22.788;2023-05-23T10:58:30;100711.88;;;28.59;31.98
12213;BME280;6169;44.158;22.788;2023-05-23T11:03:36;100687.91;;;29.25;31.56
12213;BME280;6169;44.158;22.788;2023-05-23T11:08:40;100723.72;;;30.06;30.98
12213;BME280;6169;44.158;22.788;2023-05-23T11:13:56;100721.56;;;29.45;31.32
12213;BME280;6169;44.158;22.788;2023-05-23T11:19:22;100716.59;;;29.38;30.86
12213;BME280;6169;44.158;22.788;2023-05-23T11:24:49;100722.59;;;29.21;30.38
12213;BME280;6169;44.158;22.788;2023-05-23T11:30:03;100712.81;;;30.04;29.18
12213;BME280;6169;44.158;22.788;2023-05-23T11:35:07;100711.66;;;29.86;28.83
12213;BME280;6169;44.158;22.788;2023-05-23T11:40:28;100704.88;;;30.26;27.40
12213;BME280;6169;44.158;22.788;2023-05-23T11:45:31;100705.63;;;29.49;28.48
12213;BME280;6169;44.158;22.788;2023-05-23T11:50:42;100702.97;;;29.36;28.02
12213;BME280;6169;44.158;22.788;2023-05-23T11:55:50;100701.25;;;29.67;28.49
12213;BME280;6169;44.158;22.788;2023-05-23T12:00:58;100679.56;;;30.03;28.85
12213;BME280;6169;44.158;22.788;2023-05-23T12:06:01;100692.28;;;29.58;29.25
12213;BME280;6169;44.158;22.788;2023-05-23T12:11:05;100693.66;;;29.87;28.39
12213;BME280;6169;44.158;22.788;2023-05-23T12:16:07;100679.22;;;28.03;30.14
12213;BME280;6169;44.158;22.788;2023-05-23T12:21:10;100672.91;;;28.22;29.42
12213;BME280;6169;44.158;22.788;2023-05-23T12:26:14;100673.31;;;28.37;28.63
12213;BME280;6169;44.158;22.788;2023-05-23T12:31:17;100669.53;;;29.08;27.88
12213;BME280;6169;44.158;22.788;2023-05-23T12:36:21;100659.00;;;29.95;26.73
12213;BME280;6169;44.158;22.788;2023-05-23T12:41:25;100651.84;;;30.90;26.67
12213;BME280;6169;44.158;22.788;2023-05-23T12:46:28;100640.59;;;30.60;nan
12213;BME280;6169;44.158;22.788;2023-05-23T12:51:30;100633.88;;;30.45;25.84
12213;BME280;6169;44.158;22.788;2023-05-23T12:56:34;100638.25;;;30.42;25.18
12213;BME280;6169;44.158;22.788;2023-05-23T13:01:36;100635.00;;;30.40;25.18
12213;BME280;6169;44.158;22.788;2023-05-23T13:06:38;100631.72;;;30.58;25.32
12213;BME280;6169;44.158;22.788;2023-05-23T13:11:42;100635.44;;;29.57;25.60
12213;BME280;6169;44.158;22.788;2023-05-23T13:16:44;100631.69;;;29.14;27.27
12213;BME280;6169;44.158;22.788;2023-05-23T13:21:46;100627.88;;;29.42;26.99
12213;BME280;6169;44.158;22.788;2023-05-23T13:26:50;100624.22;;;29.57;26.77
12213;BME280;6169;44.158;22.788;2023-05-23T13:31:52;100626.56;;;29.36;27.48
12213;BME280;6169;44.158;22.788;2023-05-23T13:36:55;100617.56;;;29.85;26.84
12213;BME280;6169;44.158;22.788;2023-05-23T13:41:58;100616.16;;;29.95;21.50
12213;BME280;6169;44.158;22.788;2023-05-23T13:47:09;100604.53;;;31.15;21.19
12213;BME280;6169;44.158;22.788;2023-05-23T13:52:12;100619.34;;;31.46;22.89
12213;BME280;6169;44.158;22.788;2023-05-23T13:57:15;100605.75;;;29.95;22.05
12213;BME280;6169;44.158;22.788;2023-05-23T14:02:17;100612.13;;;30.61;22.95
12213;BME280;6169;44.158;22.788;2023-05-23T14:07:21;100617.72;;;31.11;22.65
12213;BME280;6169;44.158;22.788;2023-05-23T14:12:24;100599.38;;;30.90;22.52
12213;BME280;6169;44.158;22.788;2023-05-23T14:17:27;100617.47;;;30.70;22.30
12213;BME280;6169;44.158;22.788;2023-05-23T14:22:29;100613.91;;;30.23;22.54
12213;BME280;6169;44.158;22.788;2023-05-23T14:27:32;100615.97;;;30.53;23.63
12213;BME280;6169;44.158;22.788;2023-05-23T14:32:35;100614.78;;;29.66;24.24
12213;BME280;6169;44.158;22.788;2023-05-23T14:37:38;100612.34;;;29.45;25.14
12213;BME280;6169;44.158;22.788;2023-05-23T14:42:42;100614.03;;;29.10;28.63
12213;BME280;6169;44.158;22.788;2023-05-23T14:47:44;100612.09;;;28.63;31.03
12213;BME280;6169;44.158;22.788;2023-05-23T14:52:46;100628.22;;;27.50;32.69
12213;BME280;6169;44.158;22.788;2023-05-23T14:57:50;100632.09;;;27.21;32.42
12213;BME280;6169;44.158;22.788;2023-05-23T15:02:52;100628.38;;;27.70;31.47
12213;BME280;6169;44.158;22.788;2023-05-23T15:07:54;100631.09;;;27.54;30.38
12213;BME280;6169;44.158;22.788;2023-05-23T15:12:58;100627.03;;;27.79;30.14
12213;BME280;6169;44.158;22.788;2023-05-23T15:18:03;100633.94;;;27.98;29.45
12213;BME280;6169;44.158;22.788;2023-05-23T15:23:07;100626.00;;;28.00;30.42
12213;BME280;6169;44.158;22.788;2023-05-23T15:28:11;100619.28;;;28.01;30.16
12213;BME280;6169;44.158;22.788;2023-05-23T15:33:13;100626.13;;;28.03;30.46
12213;BME280;6169;44.158;22.788;2023-05-23T15:38:15;100627.34;;;27.62;30.60
12213;BME280;6169;44.158;22.788;2023-05-23T15:43:19;100632.94;;;28.66;29.14
12213;BME280;6169;44.158;22.788;2023-05-23T15:48:21;100633.81;;;28.86;29.01
12213;BME280;6169;44.158;22.788;2023-05-23T15:53:24;100630.88;;;29.14;28.32
12213;BME280;6169;44.158;22.788;2023-05-23T15:58:27;100620.09;;;28.81;27.72
12213;BME280;6169;44.158;22.788;2023-05-23T16:03:31;100616.72;;;29.07;28.79
12213;BME280;6169;44.158;22.788;2023-05-23T16:08:33;100608.88;;;29.32;27.61
12213;BME280;6169;44.158;22.788;2023-05-23T16:13:37;100613.50;;;29.05;26.89
12213;BME280;6169;44.158;22.788;2023-05-23T16:18:39;100609.50;;;28.90;26.40
12213;BME280;6169;44.158;22.788;2023-05-23T16:23:41;100610.78;;;28.92;26.81
12213;BME280;6169;44.158;22.788;2023-05-23T16:28:44;100608.88;;;29.32;28.01
12213;BME280;6169;44.158;22.788;2023-05-23T16:33:47;100619.53;;;28.91;28.37
12213;BME280;6169;44.158;22.788;2023-05-23T16:38:49;100608.56;;;28.35;30.58
12213;BME280;6169;44.158;22.788;2023-05-23T16:43:53;100613.25;;;28.31;31.13
12213;BME280;6169;44.158;22.788;2023-05-23T16:48:55;100622.88;;;27.73;32.23
12213;BME280;6169;44.158;22.788;2023-05-23T16:53:57;100628.38;;;26.31;33.70
12213;BME280;6169;44.158;22.788;2023-05-23T16:59:01;100629.50;;;26.30;33.84
12213;BME280;6169;44.158;22.788;2023-05-23T17:04:03;100621.50;;;25.83;34.59
12213;BME280;6169;44.158;22.788;2023-05-23T17:09:05;100616.97;;;26.24;34.14
12213;BME280;6169;44.158;22.788;2023-05-23T17:14:09;100613.66;;;25.97;35.38
12213;BME280;6169;44.158;22.788;2023-05-23T17:19:11;100617.66;;;26.33;34.85
12213;BME280;6169;44.158;22.788;2023-05-23T17:24:14;100613.25;;;26.32;35.33
12213;BME280;6169;44.158;22.788;2023-05-23T17:29:18;100614.13;;;26.94;35.65
12213;BME280;6169;44.158;22.788;2023-05-23T17:34:20;100610.81;;;26.18;35.92
12213;BME280;6169;44.158;22.788;2023-05-23T17:39:22;100618.59;;;26.25;35.47
12213;BME280;6169;44.158;22.788;2023-05-23T17:44:26;100618.84;;;26.32;36.36
12213;BME280;6169;44.158;22.788;2023-05-23T17:49:28;100618.41;;;25.97;37.06
12213;BME280;6169;44.158;22.788;2023-05-23T17:54:30;100613.13;;;26.16;37.56
12213;BME280;6169;44.158;22.788;2023-05-23T17:59:34;100620.88;;;26.11;37.41
12213;BME280;6169;44.158;22.788;2023-05-23T18:04:37;100623.13;;;25.84;38.46
12213;BME280;6169;44.158;22.788;2023-05-23T18:09:40;100623.84;;;25.39;39.09
12213;BME280;6169;44.158;22.788;2023-05-23T18:14:43;100639.50;;;24.93;40.92
12213;BME280;6169;44.158;22.788;2023-05-23T18:19:46;100635.72;;;24.59;41.39
12213;BME280;6169;44.158;22.788;2023-05-23T18:24:49;100635.88;;;24.71;40.67
12213;BME280;6169;44.158;22.788;2023-05-23T18:29:53;100641.38;;;24.80;41.04
12213;BME280;6169;44.158;22.788;2023-05-23T18:34:55;100641.41;;;24.24;41.55
12213;BME280;6169;44.158;22.788;2023-05-23T18:39:57;100657.13;;;24.12;42.61
12213;BME280;6169;44.158;22.788;2023-05-23T18:45:01;100653.50;;;24.29;42.33
12213;BME280;6169;44.158;22.788;2023-05-23T18:50:05;100662.50;;;23.99;43.42
12213;BME280;6169;44.158;22.788;2023-05-23T18:55:08;100667.44;;;23.76;43.35
12213;BME280;6169;44.158;22.788;2023-05-23T19:00:13;100671.50;;;23.35;44.84
12213;BME280;6169;44.158;22.788;2023-05-23T19:05:15;100684.41;;;23.49;44.09
12213;BME280;6169;44.158;22.788;2023-05-23T19:10:17;100686.38;;;23.66;43.59
12213;BME280;6169;44.158;22.788;2023-05-23T19:15:21;100699.75;;;22.98;44.90
12213;BME280;6169;44.158;22.788;2023-05-23T19:20:24;100701.09;;;23.09;45.07
12213;BME280;6169;44.158;22.788;2023-05-23T19:25:26;100704.72;;;22.78;46.21
12213;BME280;6169;44.158;22.788;2023-05-23T19:30:30;100710.97;;;22.84;46.23
12213;BME280;6169;44.158;22.788;2023-05-23T19:35:32;100724.94;;;22.47;46.46
12213;BME280;6169;44.158;22.788;2023-05-23T19:40:34;100727.28;;;22.54;46.54
12213;BME280;6169;44.158;22.788;2023-05-23T19:45:38;100738.53;;;22.13;48.36
12213;BME280;6169;44.158;22.788;2023-05-23T19:50:40;100740.63;;;22.52;47.61
12213;BME280;6169;44.158;22.788;2023-05-23T19:55:42;100739.59;;;22.25;48.36
12213;BME280;6169;44.158;22.788;2023-05-23T20:00:46;100744.09;;;22.35;47.95
12213;BME280;6169;44.158;22.788;2023-05-23T20:05:49;100746.63;;;22.23;48.47
12213;BME280;6169;44.158;22.788;2023-05-23T20:10:51;100755.03;;;22.40;47.77
12213;BME280;6169;44.158;22.788;2023-05-23T20:15:56;100762.72;;;22.21;47.20
12213;BME280;6169;44.158;22.788;2023-05-23T20:20:59;100765.50;;;22.21;48.14
12213;BME280;6169;44.158;22.788;2023-05-23T20:26:01;100779.88;;;21.73;49.29
12213;BME280;6169;44.158;22.788;2023-05-23T20:31:05;100783.69;;;21.99;48.33
12213;BME280;6169;44.158;22.788;2023-05-23T20:36:08;100799.84;;;21.42;50.19
12213;BME280;6169;44.158;22.788;2023-05-23T20:41:10;100795.50;;;21.91;49.17
12213;BME280;6169;44.158;22.788;2023-05-23T20:46:15;100802.63;;;21.70;49.77
12213;BME280;6169;44.158;22.788;2023-05-23T20:51:17;100786.28;;;21.82;49.55
12213;BME280;6169;44.158;22.788;2023-05-23T20:56:19;100796.06;;;21.66;50.33
12213;BME280;6169;44.158;22.788;2023-05-23T21:01:23;100791.22;;;21.71;49.46
12213;BME280;6169;44.158;22.788;2023-05-23T21:06:25;100797.69;;;21.39;51.16
12213;BME280;6169;44.158;22.788;2023-05-23T21:11:27;100797.81;;;21.48;50.25
12213;BME280;6169;44.158;22.788;2023-05-23T21:16:31;100800.78;;;21.65;49.79
12213;BME280;6169;44.158;22.788;2023-05-23T21:21:33;100797.09;;;21.42;50.92
12213;BME280;6169;44.158;22.788;2023-05-23T21:26:35;100798.63;;;21.76;49.90
12213;BME280;6169;44.158;22.788;2023-05-23T21:31:39;100798.00;;;21.79;50.05
12213;BME280;6169;44.158;22.788;2023-05-23T21:36:41;100797.78;;;21.89;49.76
12213;BME280;6169;44.158;22.788;2023-05-23T21:41:43;100794.78;;;21.86;49.50
12213;BME280;6169;44.158;22.788;2023-05-23T21:46:47;100809.56;;;21.26;51.30
12213;BME280;6169;44.158;22.788;2023-05-23T21:51:49;100805.06;;;21.30;51.06
12213;BME280;6169;44.158;22.788;2023-05-23T21:56:51;100809.44;;;20.89;54.70
12213;BME280;6169;44.158;22.788;2023-05-23T22:01:55;100827.09;;;21.07;54.93
12213;BME280;6169;44.158;22.788;2023-05-23T22:06:57;100819.56;;;20.61;58.55
12213;BME280;6169;44.158;22.788;2023-05-23T22:12:00;100821.63;;;20.69;58.45
12213;BME280;6169;44.158;22.788;2023-05-23T22:17:04;100819.72;;;21.16;56.88
12213;BME280;6169;44.158;22.788;2023-05-23T22:22:06;100812.66;;;21.66;54.66
12213;BME280;6169;44.158;22.788;2023-05-23T22:27:09;100804.53;;;21.00;58.43
12213;BME280;6169;44.158;22.788;2023-05-23T22:32:13;100802.06;;;20.85;58.92
12213;BME280;6169;44.158;22.788;2023-05-23T22:37:15;100775.66;;;20.92;58.25
12213;BME280;6169;44.158;22.788;2023-05-23T22:42:17;100786.94;;;21.24;57.53
12213;BME280;6169;44.158;22.788;2023-05-23T22:47:21;100773.84;;;21.02;57.01
12213;BME280;6169;44.158;22.788;2023-05-23T22:52:23;100772.59;;;21.49;55.58
12213;BME280;6169;44.158;22.788;2023-05-23T22:57:26;100766.38;;;21.02;56.22
12213;BME280;6169;44.158;22.788;2023-05-23T23:02:29;100762.56;;;20.98;55.92
12213;BME280;6169;44.158;22.788;2023-05-23T23:07:32;100754.59;;;21.10;55.14
12213;BME280;6169;44.158;22.788;2023-05-23T23:12:34;100780.19;;;21.16;55.05
12213;BME280;6169;44.158;22.788;2023-05-23T23:17:38;100772.81;;;21.11;54.57
12213;BME280;6169;44.158;22.788;2023-05-23T23:22:40;100755.78;;;20.44;55.67
12213;BME280;6169;44.158;22.788;2023-05-23T23:27:42;100768.41;;;20.31;55.61
12213;BME280;6169;44.158;22.788;2023-05-23T23:32:46;100763.06;;;20.21;55.89
12213;BME280;6169;44.158;22.788;2023-05-23T23:37:49;100768.22;;;19.90;57.96
12213;BME280;6169;44.158;22.788;2023-05-23T23:42:51;100766.44;;;20.18;57.15
12213;BME280;6169;44.158;22.788;2023-05-23T23:47:55;100760.69;;;20.14;56.92
12213;BME280;6169;44.158;22.788;2023-05-23T23:52:57;100753.75;;;19.98;57.17
12213;BME280;6169;44.158;22.788;2023-05-23T23:57:59;100760.97;;;20.13;55.58
